createdAt,value
2022-07-29T00:00:25.842Z,340.00
2022-07-29T00:00:55.954Z,342.00
2022-07-29T00:01:26.077Z,342.00
2022-07-29T00:02:35.171Z,331.00
2022-07-29T00:03:05.393Z,336.00
2022-07-29T00:03:35.295Z,341.00
2022-07-29T00:04:05.374Z,340.00
2022-07-29T00:04:35.502Z,341.00
2022-07-29T00:05:05.431Z,341.00
2022-07-29T00:05:35.509Z,340.00
2022-07-29T00:06:05.584Z,339.00
2022-07-29T00:06:35.665Z,339.00
2022-07-29T00:07:05.746Z,338.00
2022-07-29T00:07:35.825Z,336.00
2022-07-29T00:08:09.401Z,336.00
2022-07-29T00:08:36.012Z,336.00
2022-07-29T00:09:06.094Z,339.00
2022-07-29T00:09:51.238Z,340.00
2022-07-29T00:10:06.273Z,339.00
2022-07-29T00:10:36.348Z,338.00
2022-07-29T00:11:06.423Z,338.00
2022-07-29T00:11:36.493Z,338.00
2022-07-29T00:12:06.579Z,336.00
2022-07-29T00:12:36.674Z,338.00
2022-07-29T00:13:06.699Z,338.00
2022-07-29T00:13:36.799Z,336.00
2022-07-29T00:14:06.930Z,337.00
2022-07-29T00:14:36.925Z,337.00
2022-07-29T00:15:07.036Z,336.00
2022-07-29T00:15:37.156Z,337.00
2022-07-29T00:16:07.334Z,337.00
2022-07-29T00:16:37.399Z,340.00
2022-07-29T00:17:07.388Z,341.00
2022-07-29T00:17:37.381Z,340.00
2022-07-29T00:18:07.499Z,340.00
2022-07-29T00:18:37.615Z,339.00
2022-07-29T00:19:07.932Z,339.00
2022-07-29T00:19:37.761Z,339.00
2022-07-29T00:20:07.876Z,339.00
2022-07-29T00:20:37.871Z,339.00
2022-07-29T00:21:07.995Z,339.00
2022-07-29T00:21:38.101Z,339.00
2022-07-29T00:22:08.232Z,340.00
2022-07-29T00:22:38.366Z,339.00
2022-07-29T00:23:08.354Z,340.00
2022-07-29T00:23:38.362Z,341.00
2022-07-29T00:24:08.482Z,340.00
2022-07-29T00:24:38.474Z,339.00
2022-07-29T00:25:08.589Z,338.00
2022-07-29T00:25:38.589Z,337.00
2022-07-29T00:26:08.708Z,339.00
2022-07-29T00:26:38.696Z,338.00
2022-07-29T00:27:08.835Z,338.00
2022-07-29T00:27:38.839Z,337.00
2022-07-29T00:28:08.826Z,337.00
2022-07-29T00:28:38.946Z,335.00
2022-07-29T00:29:38.954Z,336.00
2022-07-29T00:30:08.952Z,335.00
2022-07-29T00:30:39.065Z,335.00
2022-07-29T00:31:09.221Z,334.00
2022-07-29T00:31:39.324Z,336.00
2022-07-29T00:32:09.326Z,337.00
2022-07-29T00:32:39.312Z,338.00
2022-07-29T00:33:09.432Z,339.00
2022-07-29T00:33:39.587Z,339.00
2022-07-29T00:34:09.576Z,338.00
2022-07-29T00:34:39.694Z,336.00
2022-07-29T00:35:09.805Z,334.00
2022-07-29T00:35:39.796Z,335.00
2022-07-29T00:36:09.917Z,337.00
2022-07-29T00:36:40.025Z,338.00
2022-07-29T00:37:10.157Z,339.00
2022-07-29T00:37:40.139Z,337.00
2022-07-29T00:38:10.263Z,335.00
2022-07-29T00:38:40.257Z,334.00
2022-07-29T00:39:10.371Z,331.00
2022-07-29T00:39:40.363Z,331.00
2022-07-29T00:40:10.475Z,331.00
2022-07-29T00:40:40.591Z,331.00
2022-07-29T00:41:10.672Z,330.00
2022-07-29T00:41:40.656Z,330.00
2022-07-29T00:42:10.883Z,329.00
2022-07-29T00:42:40.883Z,330.00
2022-07-29T00:43:10.875Z,331.00
2022-07-29T00:43:40.992Z,332.00
2022-07-29T00:44:11.104Z,333.00
2022-07-29T00:44:41.225Z,333.00
2022-07-29T00:45:11.332Z,334.00
2022-07-29T00:45:41.447Z,334.00
2022-07-29T00:46:11.627Z,334.00
2022-07-29T00:46:41.688Z,332.00
2022-07-29T00:47:11.904Z,333.00
2022-07-29T00:47:41.805Z,335.00
2022-07-29T00:48:11.921Z,335.00
2022-07-29T00:48:41.957Z,335.00
2022-07-29T00:49:12.071Z,334.00
2022-07-29T00:49:41.969Z,336.00
2022-07-29T00:50:12.074Z,336.00
2022-07-29T00:50:42.065Z,335.00
2022-07-29T00:51:12.184Z,336.00
2022-07-29T00:51:42.304Z,336.00
2022-07-29T00:52:12.438Z,336.00
2022-07-29T00:52:42.478Z,334.00
2022-07-29T00:53:12.460Z,334.00
2022-07-29T00:53:42.572Z,334.00
2022-07-29T00:54:12.892Z,334.00
2022-07-29T00:54:44.138Z,336.00
2022-07-29T00:55:12.738Z,334.00
2022-07-29T00:55:42.849Z,333.00
2022-07-29T00:56:12.971Z,332.00
2022-07-29T00:56:42.963Z,332.00
2022-07-29T00:57:13.261Z,334.00
2022-07-29T00:57:43.188Z,335.00
2022-07-29T00:58:13.299Z,335.00
2022-07-29T00:58:43.422Z,335.00
2022-07-29T00:59:13.416Z,333.00
2022-07-29T00:59:43.527Z,331.00
2022-07-29T01:00:13.643Z,330.00
2022-07-29T01:00:43.836Z,332.00
2022-07-29T01:01:13.877Z,332.00
2022-07-29T01:01:43.970Z,331.00
2022-07-29T01:02:14.054Z,332.00
2022-07-29T01:02:44.016Z,333.00
2022-07-29T01:03:14.097Z,332.00
2022-07-29T01:03:44.171Z,331.00
2022-07-29T01:04:14.553Z,331.00
2022-07-29T01:04:44.359Z,333.00
2022-07-29T01:05:14.428Z,332.00
2022-07-29T01:05:48.032Z,332.00
2022-07-29T01:06:14.612Z,331.00
2022-07-29T01:06:44.681Z,332.00
2022-07-29T01:07:14.790Z,334.00
2022-07-29T01:07:44.860Z,332.00
2022-07-29T01:08:14.938Z,332.00
2022-07-29T01:08:45.016Z,333.00
2022-07-29T01:09:15.093Z,335.00
2022-07-29T01:09:47.068Z,336.00
2022-07-29T01:10:15.172Z,334.00
2022-07-29T01:10:45.250Z,335.00
2022-07-29T01:11:15.322Z,335.00
2022-07-29T01:11:45.407Z,336.00
2022-07-29T01:12:15.541Z,336.00
2022-07-29T01:12:45.557Z,337.00
2022-07-29T01:13:15.534Z,339.00
2022-07-29T01:13:45.655Z,340.00
2022-07-29T01:14:16.029Z,339.00
2022-07-29T01:14:45.799Z,339.00
2022-07-29T01:15:15.915Z,341.00
2022-07-29T01:15:49.469Z,343.00
2022-07-29T01:16:16.203Z,343.00
2022-07-29T01:16:46.323Z,342.00
2022-07-29T01:17:16.387Z,343.00
2022-07-29T01:17:53.163Z,344.00
2022-07-29T01:18:18.210Z,343.00
2022-07-29T01:18:46.414Z,343.00
2022-07-29T01:19:16.520Z,343.00
2022-07-29T01:19:46.634Z,343.00
2022-07-29T01:20:16.748Z,343.00
2022-07-29T01:20:46.861Z,343.00
2022-07-29T01:21:16.979Z,342.00
2022-07-29T01:21:47.090Z,342.00
2022-07-29T01:22:17.233Z,341.00
2022-07-29T01:22:47.216Z,341.00
2022-07-29T01:23:17.336Z,342.00
2022-07-29T01:23:47.455Z,339.00
2022-07-29T01:24:17.843Z,340.00
2022-07-29T01:24:47.487Z,340.00
2022-07-29T01:25:17.602Z,340.00
2022-07-29T01:25:47.968Z,342.00
2022-07-29T01:26:20.304Z,342.00
2022-07-29T01:26:47.634Z,341.00
2022-07-29T01:27:18.171Z,340.00
2022-07-29T01:27:47.858Z,340.00
2022-07-29T01:28:17.965Z,338.00
2022-07-29T01:28:48.079Z,338.00
2022-07-29T01:29:18.203Z,337.00
2022-07-29T01:29:48.212Z,337.00
2022-07-29T01:30:18.292Z,335.00
2022-07-29T01:30:48.376Z,336.00
2022-07-29T01:31:25.323Z,335.00
2022-07-29T01:31:58.567Z,336.00
2022-07-29T01:32:28.168Z,337.00
2022-07-29T01:32:48.535Z,337.00
2022-07-29T01:33:18.541Z,338.00
2022-07-29T01:33:48.653Z,340.00
2022-07-29T01:34:18.966Z,340.00
2022-07-29T01:34:48.702Z,339.00
2022-07-29T01:35:18.801Z,337.00
2022-07-29T01:35:48.800Z,336.00
2022-07-29T01:36:18.910Z,336.00
2022-07-29T01:36:48.912Z,336.00
2022-07-29T01:37:19.035Z,338.00
2022-07-29T01:37:49.045Z,338.00
2022-07-29T01:38:19.035Z,338.00
2022-07-29T01:38:49.091Z,339.00
2022-07-29T01:39:19.208Z,338.00
2022-07-29T01:39:49.328Z,337.00
2022-07-29T01:40:19.438Z,336.00
2022-07-29T01:40:49.556Z,334.00
2022-07-29T01:41:19.670Z,334.00
2022-07-29T01:41:49.783Z,334.00
2022-07-29T01:42:19.902Z,334.00
2022-07-29T01:42:50.244Z,334.00
2022-07-29T01:43:20.115Z,333.00
2022-07-29T01:43:50.223Z,335.00
2022-07-29T01:44:20.339Z,335.00
2022-07-29T01:44:50.450Z,338.00
2022-07-29T01:45:20.563Z,339.00
2022-07-29T01:45:50.678Z,338.00
2022-07-29T01:46:20.869Z,339.00
2022-07-29T01:46:50.954Z,337.00
2022-07-29T01:47:20.871Z,336.00
2022-07-29T01:47:50.865Z,336.00
2022-07-29T01:48:20.873Z,338.00
2022-07-29T01:48:50.916Z,338.00
2022-07-29T01:49:20.931Z,338.00
2022-07-29T01:49:50.908Z,338.00
2022-07-29T01:50:21.023Z,338.00
2022-07-29T01:50:51.139Z,339.00
2022-07-29T01:51:21.257Z,338.00
2022-07-29T01:51:51.366Z,339.00
2022-07-29T01:52:21.475Z,339.00
2022-07-29T01:52:51.597Z,340.00
2022-07-29T01:53:21.585Z,342.00
2022-07-29T01:53:51.718Z,340.00
2022-07-29T01:54:21.814Z,340.00
2022-07-29T01:54:51.933Z,340.00
2022-07-29T01:55:22.049Z,338.00
2022-07-29T01:55:52.169Z,338.00
2022-07-29T01:56:22.167Z,336.00
2022-07-29T01:56:52.277Z,336.00
2022-07-29T01:57:22.279Z,337.00
2022-07-29T01:57:52.393Z,336.00
2022-07-29T01:58:22.389Z,334.00
2022-07-29T01:58:52.500Z,334.00
2022-07-29T01:59:22.569Z,335.00
2022-07-29T01:59:52.684Z,335.00
2022-07-29T02:00:22.797Z,337.00
2022-07-29T02:00:52.917Z,337.00
2022-07-29T02:01:22.964Z,340.00
2022-07-29T02:01:52.956Z,341.00
2022-07-29T02:02:22.957Z,344.00
2022-07-29T02:02:53.036Z,345.00
2022-07-29T02:03:23.111Z,343.00
2022-07-29T02:03:53.184Z,342.00
2022-07-29T02:04:29.497Z,342.00
2022-07-29T02:04:53.430Z,341.00
2022-07-29T02:05:23.438Z,340.00
2022-07-29T02:05:53.430Z,342.00
2022-07-29T02:06:23.503Z,341.00
2022-07-29T02:06:53.579Z,338.00
2022-07-29T02:07:23.659Z,338.00
2022-07-29T02:07:53.734Z,337.00
2022-07-29T02:08:23.824Z,336.00
2022-07-29T02:08:53.917Z,336.00
2022-07-29T02:09:23.985Z,336.00
2022-07-29T02:09:54.068Z,336.00
2022-07-29T02:10:26.073Z,336.00
2022-07-29T02:10:54.234Z,338.00
2022-07-29T02:11:24.313Z,339.00
2022-07-29T02:11:54.386Z,338.00
2022-07-29T02:12:24.499Z,337.00
2022-07-29T02:12:54.618Z,339.00
2022-07-29T02:13:24.613Z,338.00
2022-07-29T02:13:54.743Z,336.00
2022-07-29T02:14:24.853Z,336.00
2022-07-29T02:14:54.965Z,336.00
2022-07-29T02:15:24.960Z,337.00
2022-07-29T02:15:55.184Z,337.00
2022-07-29T02:16:25.246Z,336.00
2022-07-29T02:16:55.210Z,333.00
2022-07-29T02:17:25.322Z,332.00
2022-07-29T02:17:55.460Z,332.00
2022-07-29T02:18:25.446Z,333.00
2022-07-29T02:18:55.564Z,334.00
2022-07-29T02:19:25.679Z,333.00
2022-07-29T02:19:55.793Z,333.00
2022-07-29T02:20:25.790Z,333.00
2022-07-29T02:20:55.903Z,333.00
2022-07-29T02:21:25.894Z,332.00
2022-07-29T02:21:56.008Z,332.00
2022-07-29T02:22:26.126Z,332.00
2022-07-29T02:22:56.250Z,332.00
2022-07-29T02:23:26.235Z,334.00
2022-07-29T02:23:56.357Z,334.00
2022-07-29T02:24:26.353Z,333.00
2022-07-29T02:24:56.466Z,333.00
2022-07-29T02:25:36.905Z,333.00
2022-07-29T02:25:56.477Z,333.00
2022-07-29T02:26:26.467Z,332.00
2022-07-29T02:26:56.583Z,331.00
2022-07-29T02:27:26.693Z,330.00
2022-07-29T02:27:56.813Z,330.00
2022-07-29T02:28:26.925Z,332.00
2022-07-29T02:28:57.050Z,337.00
2022-07-29T02:29:27.039Z,337.00
2022-07-29T02:29:57.157Z,337.00
2022-07-29T02:30:27.273Z,340.00
2022-07-29T02:30:57.432Z,341.00
2022-07-29T02:31:27.477Z,342.00
2022-07-29T02:31:57.464Z,341.00
2022-07-29T02:32:27.582Z,343.00
2022-07-29T02:32:57.621Z,344.00
2022-07-29T02:33:27.594Z,344.00
2022-07-29T02:33:57.595Z,343.00
2022-07-29T02:34:27.704Z,340.00
2022-07-29T02:34:57.826Z,341.00
2022-07-29T02:35:27.815Z,341.00
2022-07-29T02:35:57.828Z,340.00
2022-07-29T02:36:27.945Z,338.00
2022-07-29T02:36:58.060Z,338.00
2022-07-29T02:37:28.192Z,340.00
2022-07-29T02:37:58.194Z,339.00
2022-07-29T02:38:28.173Z,337.00
2022-07-29T02:38:58.288Z,337.00
2022-07-29T02:39:28.399Z,337.00
2022-07-29T02:39:58.519Z,337.00
2022-07-29T02:40:28.635Z,337.00
2022-07-29T02:40:58.744Z,334.00
2022-07-29T02:41:28.864Z,334.00
2022-07-29T02:41:58.870Z,334.00
2022-07-29T02:42:28.985Z,334.00
2022-07-29T02:42:59.122Z,334.00
2022-07-29T02:43:29.118Z,335.00
2022-07-29T02:43:59.103Z,335.00
2022-07-29T02:44:34.252Z,334.00
2022-07-29T02:44:59.235Z,335.00
2022-07-29T02:45:29.216Z,335.00
2022-07-29T02:45:59.386Z,335.00
2022-07-29T02:46:29.788Z,337.00
2022-07-29T02:46:59.441Z,338.00
2022-07-29T02:47:29.533Z,339.00
2022-07-29T02:47:59.659Z,339.00
2022-07-29T02:48:29.769Z,340.00
2022-07-29T02:48:59.970Z,339.00
2022-07-29T02:49:29.972Z,338.00
2022-07-29T02:50:00.671Z,338.00
2022-07-29T02:50:30.183Z,339.00
2022-07-29T02:51:00.302Z,337.00
2022-07-29T02:51:43.928Z,337.00
2022-07-29T02:52:00.311Z,337.00
2022-07-29T02:52:30.422Z,339.00
2022-07-29T02:53:00.568Z,339.00
2022-07-29T02:53:30.559Z,339.00
2022-07-29T02:54:00.672Z,339.00
2022-07-29T02:54:30.783Z,339.00
2022-07-29T02:55:00.893Z,339.00
2022-07-29T02:55:31.012Z,340.00
2022-07-29T02:56:01.122Z,341.00
2022-07-29T02:56:31.235Z,340.00
2022-07-29T02:57:01.351Z,338.00
2022-07-29T02:57:31.473Z,337.00
2022-07-29T02:58:01.613Z,338.00
2022-07-29T02:58:31.595Z,337.00
2022-07-29T02:59:01.707Z,338.00
2022-07-29T02:59:31.797Z,341.00
2022-07-29T03:00:01.905Z,340.00
2022-07-29T03:00:32.014Z,338.00
2022-07-29T03:01:02.155Z,337.00
2022-07-29T03:01:32.240Z,336.00
2022-07-29T03:02:02.306Z,336.00
2022-07-29T03:02:32.277Z,334.00
2022-07-29T03:03:02.333Z,336.00
2022-07-29T03:03:32.289Z,339.00
2022-07-29T03:04:02.370Z,339.00
2022-07-29T03:04:32.506Z,339.00
2022-07-29T03:05:02.519Z,339.00
2022-07-29T03:05:32.476Z,340.00
2022-07-29T03:06:02.543Z,340.00
2022-07-29T03:06:38.005Z,340.00
2022-07-29T03:07:02.727Z,340.00
2022-07-29T03:07:32.801Z,339.00
2022-07-29T03:08:02.900Z,338.00
2022-07-29T03:08:32.961Z,339.00
2022-07-29T03:09:03.038Z,340.00
2022-07-29T03:09:33.121Z,340.00
2022-07-29T03:10:03.197Z,340.00
2022-07-29T03:10:33.268Z,341.00
2022-07-29T03:11:03.353Z,342.00
2022-07-29T03:11:42.360Z,342.00
2022-07-29T03:12:03.533Z,341.00
2022-07-29T03:12:33.655Z,341.00
2022-07-29T03:13:03.820Z,340.00
2022-07-29T03:13:33.809Z,338.00
2022-07-29T03:14:03.919Z,339.00
2022-07-29T03:14:33.918Z,339.00
2022-07-29T03:15:04.029Z,338.00
2022-07-29T03:15:34.150Z,339.00
2022-07-29T03:16:04.338Z,337.00
2022-07-29T03:16:38.085Z,336.00
2022-07-29T03:17:04.341Z,336.00
2022-07-29T03:17:34.449Z,335.00
2022-07-29T03:18:04.574Z,334.00
2022-07-29T03:18:34.591Z,334.00
2022-07-29T03:19:04.691Z,335.00
2022-07-29T03:19:34.797Z,333.00
2022-07-29T03:20:04.907Z,333.00
2022-07-29T03:20:34.904Z,333.00
2022-07-29T03:21:05.029Z,333.00
2022-07-29T03:21:35.010Z,334.00
2022-07-29T03:22:05.135Z,333.00
2022-07-29T03:22:35.131Z,333.00
2022-07-29T03:23:05.254Z,332.00
2022-07-29T03:23:36.752Z,332.00
2022-07-29T03:24:10.059Z,335.00
2022-07-29T03:24:35.295Z,334.00
2022-07-29T03:25:05.413Z,334.00
2022-07-29T03:25:35.534Z,336.00
2022-07-29T03:26:05.643Z,335.00
2022-07-29T03:26:35.762Z,335.00
2022-07-29T03:27:05.886Z,335.00
2022-07-29T03:27:35.993Z,335.00
2022-07-29T03:28:06.106Z,335.00
2022-07-29T03:28:36.232Z,337.00
2022-07-29T03:29:06.261Z,338.00
2022-07-29T03:29:36.354Z,338.00
2022-07-29T03:30:06.477Z,339.00
2022-07-29T03:30:36.477Z,341.00
2022-07-29T03:31:06.660Z,340.00
2022-07-29T03:31:36.630Z,340.00
2022-07-29T03:32:08.281Z,340.00
2022-07-29T03:32:36.781Z,340.00
2022-07-29T03:33:13.455Z,342.00
2022-07-29T03:33:36.913Z,342.00
2022-07-29T03:34:06.901Z,342.00
2022-07-29T03:34:37.015Z,340.00
2022-07-29T03:35:07.127Z,340.00
2022-07-29T03:35:37.240Z,340.00
2022-07-29T03:36:07.363Z,339.00
2022-07-29T03:36:37.472Z,340.00
2022-07-29T03:37:07.589Z,340.00
2022-07-29T03:37:37.576Z,339.00
2022-07-29T03:38:07.702Z,339.00
2022-07-29T03:38:37.809Z,338.00
2022-07-29T03:39:07.795Z,336.00
2022-07-29T03:39:37.908Z,334.00
2022-07-29T03:40:08.028Z,334.00
2022-07-29T03:40:38.141Z,332.00
2022-07-29T03:41:08.262Z,332.00
2022-07-29T03:41:38.376Z,334.00
2022-07-29T03:42:08.376Z,336.00
2022-07-29T03:42:38.364Z,337.00
2022-07-29T03:43:08.481Z,338.00
2022-07-29T03:43:38.597Z,337.00
2022-07-29T03:44:08.614Z,336.00
2022-07-29T03:44:38.724Z,334.00
2022-07-29T03:45:08.836Z,336.00
2022-07-29T03:45:38.952Z,335.00
2022-07-29T03:46:09.118Z,337.00
2022-07-29T03:46:39.158Z,338.00
2022-07-29T03:47:09.141Z,338.00
2022-07-29T03:47:50.055Z,340.00
2022-07-29T03:48:09.276Z,339.00
2022-07-29T03:48:39.470Z,342.00
2022-07-29T03:49:09.555Z,342.00
2022-07-29T03:49:39.543Z,342.00
2022-07-29T03:50:10.854Z,342.00
2022-07-29T03:50:39.702Z,341.00
2022-07-29T03:51:09.819Z,341.00
2022-07-29T03:51:39.932Z,341.00
2022-07-29T03:52:10.049Z,340.00
2022-07-29T03:52:40.158Z,339.00
2022-07-29T03:53:10.271Z,338.00
2022-07-29T03:53:40.272Z,336.00
2022-07-29T03:54:10.488Z,335.00
2022-07-29T03:54:40.438Z,335.00
2022-07-29T03:55:10.559Z,335.00
2022-07-29T03:55:40.663Z,337.00
2022-07-29T03:56:10.775Z,337.00
2022-07-29T03:56:40.903Z,337.00
2022-07-29T03:57:11.012Z,337.00
2022-07-29T03:57:41.121Z,335.00
2022-07-29T03:58:11.246Z,335.00
2022-07-29T03:58:41.358Z,335.00
2022-07-29T03:59:11.477Z,335.00
2022-07-29T03:59:41.589Z,335.00
2022-07-29T04:00:11.706Z,335.00
2022-07-29T04:00:41.706Z,335.00
2022-07-29T04:01:11.920Z,336.00
2022-07-29T04:01:41.945Z,337.00
2022-07-29T04:02:12.155Z,335.00
2022-07-29T04:02:42.021Z,333.00
2022-07-29T04:03:12.231Z,336.00
2022-07-29T04:03:42.200Z,335.00
2022-07-29T04:04:12.412Z,336.00
2022-07-29T04:04:42.206Z,337.00
2022-07-29T04:05:12.282Z,338.00
2022-07-29T04:05:42.361Z,337.00
2022-07-29T04:06:12.435Z,338.00
2022-07-29T04:06:42.511Z,339.00
2022-07-29T04:07:12.611Z,339.00
2022-07-29T04:07:42.692Z,339.00
2022-07-29T04:08:12.760Z,338.00
2022-07-29T04:08:42.841Z,337.00
2022-07-29T04:09:12.925Z,337.00
2022-07-29T04:09:43.016Z,336.00
2022-07-29T04:10:13.085Z,337.00
2022-07-29T04:10:43.160Z,336.00
2022-07-29T04:11:13.236Z,335.00
2022-07-29T04:12:02.124Z,333.00
2022-07-29T04:12:13.431Z,332.00
2022-07-29T04:12:43.429Z,332.00
2022-07-29T04:13:13.543Z,334.00
2022-07-29T04:13:43.657Z,334.00
2022-07-29T04:14:14.035Z,332.00
2022-07-29T04:14:43.791Z,332.00
2022-07-29T04:15:13.908Z,331.00
2022-07-29T04:15:43.939Z,332.00
2022-07-29T04:16:13.988Z,332.00
2022-07-29T04:16:43.980Z,334.00
2022-07-29T04:17:14.093Z,334.00
2022-07-29T04:17:44.213Z,331.00
2022-07-29T04:18:14.322Z,329.00
2022-07-29T04:18:44.440Z,331.00
2022-07-29T04:19:14.554Z,334.00
2022-07-29T04:19:44.683Z,334.00
2022-07-29T04:20:14.671Z,333.00
2022-07-29T04:20:44.783Z,332.00
2022-07-29T04:21:14.896Z,332.00
2022-07-29T04:21:45.016Z,333.00
2022-07-29T04:22:15.129Z,333.00
2022-07-29T04:22:45.251Z,332.00
2022-07-29T04:23:15.241Z,332.00
2022-07-29T04:23:47.473Z,332.00
2022-07-29T04:24:15.618Z,332.00
2022-07-29T04:24:45.316Z,332.00
2022-07-29T04:25:15.431Z,331.00
2022-07-29T04:25:45.543Z,331.00
2022-07-29T04:26:15.648Z,330.00
2022-07-29T04:26:45.768Z,330.00
2022-07-29T04:27:15.878Z,330.00
2022-07-29T04:27:45.998Z,329.00
2022-07-29T04:28:15.988Z,331.00
2022-07-29T04:28:46.050Z,332.00
2022-07-29T04:29:16.169Z,331.00
2022-07-29T04:29:57.015Z,332.00
2022-07-29T04:30:16.314Z,333.00
2022-07-29T04:30:46.490Z,333.00
2022-07-29T04:31:16.532Z,334.00
2022-07-29T04:31:46.641Z,333.00
2022-07-29T04:32:16.643Z,332.00
2022-07-29T04:32:46.767Z,332.00
2022-07-29T04:33:16.866Z,333.00
2022-07-29T04:33:46.982Z,332.00
2022-07-29T04:34:17.397Z,332.00
2022-07-29T04:34:47.128Z,331.00
2022-07-29T04:35:17.237Z,330.00
2022-07-29T04:35:52.338Z,330.00
2022-07-29T04:36:28.753Z,330.00
2022-07-29T04:36:47.383Z,332.00
2022-07-29T04:37:17.378Z,332.00
2022-07-29T04:37:47.489Z,332.00
2022-07-29T04:38:17.603Z,331.00
2022-07-29T04:38:47.719Z,332.00
2022-07-29T04:39:22.457Z,333.00
2022-07-29T04:39:47.850Z,334.00
2022-07-29T04:40:17.847Z,333.00
2022-07-29T04:40:47.836Z,333.00
2022-07-29T04:41:17.886Z,334.00
2022-07-29T04:41:47.987Z,332.00
2022-07-29T04:42:18.094Z,332.00
2022-07-29T04:42:48.163Z,330.00
2022-07-29T04:43:21.260Z,345.00
2022-07-29T04:43:48.136Z,342.00
2022-07-29T04:44:18.529Z,343.00
2022-07-29T04:44:48.182Z,343.00
2022-07-29T04:45:22.246Z,344.00
2022-07-29T04:45:48.325Z,346.00
2022-07-29T04:46:18.484Z,348.00
2022-07-29T04:46:48.538Z,350.00
2022-07-29T04:47:18.522Z,353.00
2022-07-29T04:47:48.659Z,356.00
2022-07-29T04:48:18.666Z,368.00
2022-07-29T04:48:48.892Z,366.00
2022-07-29T04:49:18.932Z,364.00
2022-07-29T04:49:48.930Z,362.00
2022-07-29T04:50:18.923Z,355.00
2022-07-29T04:50:49.045Z,359.00
2022-07-29T04:51:19.143Z,360.00
2022-07-29T04:51:49.257Z,364.00
2022-07-29T04:52:19.392Z,362.00
2022-07-29T04:52:49.377Z,360.00
2022-07-29T04:53:19.488Z,362.00
2022-07-29T04:53:49.607Z,360.00
2022-07-29T04:54:19.920Z,361.00
2022-07-29T04:54:49.741Z,360.00
2022-07-29T04:55:19.853Z,359.00
2022-07-29T04:55:49.966Z,359.00
2022-07-29T04:56:20.078Z,360.00
2022-07-29T04:56:50.191Z,361.00
2022-07-29T04:57:20.312Z,361.00
2022-07-29T04:57:50.424Z,361.00
2022-07-29T04:58:20.546Z,361.00
2022-07-29T04:58:50.655Z,364.00
2022-07-29T04:59:20.775Z,363.00
2022-07-29T04:59:50.882Z,363.00
2022-07-29T05:00:20.994Z,363.00
2022-07-29T05:00:51.108Z,362.00
2022-07-29T05:01:21.255Z,361.00
2022-07-29T05:01:51.400Z,358.00
2022-07-29T05:02:21.356Z,359.00
2022-07-29T05:02:51.470Z,364.00
2022-07-29T05:03:21.412Z,358.00
2022-07-29T05:03:52.422Z,355.00
2022-07-29T05:04:21.587Z,357.00
2022-07-29T05:04:51.663Z,357.00
2022-07-29T05:05:21.743Z,357.00
2022-07-29T05:05:51.829Z,356.00
2022-07-29T05:06:21.897Z,354.00
2022-07-29T05:06:51.972Z,352.00
2022-07-29T05:07:22.051Z,353.00
2022-07-29T05:07:52.133Z,353.00
2022-07-29T05:08:22.206Z,354.00
2022-07-29T05:08:52.280Z,355.00
2022-07-29T05:09:22.354Z,356.00
2022-07-29T05:09:52.431Z,358.00
2022-07-29T05:10:22.523Z,359.00
2022-07-29T05:10:52.600Z,360.00
2022-07-29T05:11:27.226Z,359.00
2022-07-29T05:11:52.784Z,359.00
2022-07-29T05:12:22.893Z,356.00
2022-07-29T05:12:52.893Z,360.00
2022-07-29T05:13:22.884Z,360.00
2022-07-29T05:13:53.002Z,356.00
2022-07-29T05:14:23.033Z,358.00
2022-07-29T05:14:53.149Z,361.00
2022-07-29T05:15:23.138Z,363.00
2022-07-29T05:15:53.316Z,359.00
2022-07-29T05:16:23.370Z,356.00
2022-07-29T05:16:53.338Z,355.00
2022-07-29T05:17:23.453Z,356.00
2022-07-29T05:17:53.569Z,358.00
2022-07-29T05:18:26.212Z,359.00
2022-07-29T05:18:53.680Z,362.00
2022-07-29T05:19:23.798Z,359.00
2022-07-29T05:19:53.909Z,357.00
2022-07-29T05:20:23.902Z,360.00
2022-07-29T05:20:54.018Z,351.00
2022-07-29T05:21:24.132Z,368.00
2022-07-29T05:21:54.249Z,356.00
2022-07-29T05:22:24.704Z,351.00
2022-07-29T05:22:54.421Z,356.00
2022-07-29T05:23:24.536Z,355.00
2022-07-29T05:23:54.642Z,354.00
2022-07-29T05:24:24.755Z,356.00
2022-07-29T05:24:54.868Z,355.00
2022-07-29T05:25:24.983Z,359.00
2022-07-29T05:25:54.998Z,360.00
2022-07-29T05:26:25.105Z,359.00
2022-07-29T05:26:55.227Z,360.00
2022-07-29T05:27:25.345Z,360.00
2022-07-29T05:27:55.456Z,360.00
2022-07-29T05:28:25.569Z,361.00
2022-07-29T05:28:55.683Z,360.00
2022-07-29T05:29:43.960Z,356.00
2022-07-29T05:29:55.809Z,357.00
2022-07-29T05:30:25.925Z,357.00
2022-07-29T05:30:56.122Z,356.00
2022-07-29T05:31:26.197Z,356.00
2022-07-29T05:31:56.200Z,357.00
2022-07-29T05:32:26.313Z,359.00
2022-07-29T05:32:56.428Z,359.00
2022-07-29T05:33:35.487Z,356.00
2022-07-29T05:33:56.553Z,356.00
2022-07-29T05:34:26.667Z,359.00
2022-07-29T05:34:56.668Z,359.00
2022-07-29T05:35:26.781Z,361.00
2022-07-29T05:36:00.524Z,360.00
2022-07-29T05:36:26.908Z,359.00
2022-07-29T05:36:57.026Z,355.00
2022-07-29T05:37:27.149Z,355.00
2022-07-29T05:37:57.260Z,355.00
2022-07-29T05:38:27.370Z,355.00
2022-07-29T05:38:57.364Z,355.00
2022-07-29T05:39:48.682Z,353.00
2022-07-29T05:39:59.008Z,352.00
2022-07-29T05:40:27.522Z,352.00
2022-07-29T05:40:57.634Z,351.00
2022-07-29T05:41:27.745Z,354.00
2022-07-29T05:41:57.860Z,352.00
2022-07-29T05:42:27.979Z,352.00
2022-07-29T05:42:57.968Z,352.00
2022-07-29T05:43:28.077Z,357.00
2022-07-29T05:43:58.191Z,361.00
2022-07-29T05:44:28.307Z,362.00
2022-07-29T05:44:58.420Z,361.00
2022-07-29T05:45:28.535Z,362.00
2022-07-29T05:45:58.753Z,361.00
2022-07-29T05:46:28.689Z,361.00
2022-07-29T05:46:58.655Z,361.00
2022-07-29T05:47:28.766Z,362.00
2022-07-29T05:47:58.884Z,360.00
2022-07-29T05:48:28.977Z,362.00
2022-07-29T05:48:59.188Z,361.00
2022-07-29T05:49:29.234Z,360.00
2022-07-29T05:49:59.203Z,358.00
2022-07-29T05:50:29.322Z,359.00
2022-07-29T05:50:59.437Z,359.00
2022-07-29T05:51:29.546Z,356.00
2022-07-29T05:51:59.660Z,356.00
2022-07-29T05:52:29.778Z,353.00
2022-07-29T05:52:59.885Z,354.00
2022-07-29T05:53:29.897Z,356.00
2022-07-29T05:54:00.009Z,355.00
2022-07-29T05:54:30.126Z,356.00
2022-07-29T05:55:00.244Z,357.00
2022-07-29T05:55:30.352Z,358.00
2022-07-29T05:56:00.469Z,358.00
2022-07-29T05:56:30.581Z,357.00
2022-07-29T05:57:00.692Z,357.00
2022-07-29T05:57:30.804Z,356.00
2022-07-29T05:58:00.937Z,356.00
2022-07-29T05:58:30.928Z,355.00
2022-07-29T05:59:01.042Z,355.00
2022-07-29T05:59:31.152Z,355.00
2022-07-29T06:00:01.266Z,354.00
2022-07-29T06:00:31.385Z,356.00
2022-07-29T06:01:01.637Z,356.00
2022-07-29T06:01:31.656Z,356.00
2022-07-29T06:02:01.733Z,354.00
2022-07-29T06:02:31.721Z,355.00
2022-07-29T06:03:01.803Z,356.00
2022-07-29T06:03:31.879Z,355.00
2022-07-29T06:04:01.991Z,357.00
2022-07-29T06:04:32.126Z,359.00
2022-07-29T06:05:02.279Z,357.00
2022-07-29T06:05:32.111Z,356.00
2022-07-29T06:06:02.188Z,354.00
2022-07-29T06:06:32.260Z,352.00
2022-07-29T06:07:02.341Z,352.00
2022-07-29T06:07:32.408Z,353.00
2022-07-29T06:08:02.469Z,353.00
2022-07-29T06:08:32.538Z,355.00
2022-07-29T06:09:12.167Z,355.00
2022-07-29T06:09:36.014Z,355.00
2022-07-29T06:10:02.772Z,355.00
2022-07-29T06:10:32.853Z,355.00
2022-07-29T06:11:02.922Z,356.00
2022-07-29T06:11:32.997Z,357.00
2022-07-29T06:12:03.082Z,357.00
2022-07-29T06:12:33.199Z,358.00
2022-07-29T06:13:03.305Z,360.00
2022-07-29T06:13:33.419Z,360.00
2022-07-29T06:14:03.532Z,362.00
2022-07-29T06:14:33.654Z,361.00
2022-07-29T06:15:03.650Z,361.00
2022-07-29T06:15:33.855Z,361.00
2022-07-29T06:16:03.853Z,359.00
2022-07-29T06:16:33.939Z,360.00